Latest Weather Observations for Bellambi

IDN60901

Issued at 5:11 am EDT Wednesday 13 November 2019 (issued every 10 minutes, with the page automatically refreshed every 10 minutes)

About weather observations | Map of Sydney area stations | Latest observations for Sydney area | Other Formats
Station Details ID: 068228 Name: BELLAMBI AWS Lat: -34.37 Lon: 150.93 Height: 10.0 m
Data from the previous 72 hours. | See also: Recent months at Bellambi
Date/Time
EDT
Temp
°C
App
Temp
°C
Dew
Point
°C
Rel
Hum
%
Delta-T
°C
Wind Press
QNH
hPa
Press
MSL
hPa
Rain since
9am
mm
Dir  Spd
km/h
Gust
km/h
Spd
kts
Gust
kts
13/05:00am 14.7 9.6 0.9 39 5.9 W 17 28 9 15 - - 0.0
13/04:30am 14.2 9.9 3.1 47 5.0 W 15 20 8 11 - - 0.0
13/04:00am 12.7 9.4 6.3 65 3.0 WSW 13 19 7 10 - - 0.0
13/03:30am 12.8 11.7 8.3 74 2.2 WNW 4 6 2 3 - - 0.0
13/03:00am 13.7 12.2 9.2 74 2.3 W 7 9 4 5 - - 0.0
13/02:30am 14.0 12.1 9.0 72 2.5 W 9 9 5 5 - - 0.0
13/02:00am 14.1 12.3 9.3 73 2.5 WSW 9 13 5 7 - - 0.0
13/01:30am 14.3 11.7 9.5 73 2.5 WSW 13 17 7 9 - - 0.0
13/01:00am 14.4 11.8 9.4 72 2.6 SW 13 15 7 8 - - 0.0
13/12:30am 15.1 11.4 10.3 73 2.5 SSW 20 26 11 14 - - 0.0
13/12:00am 15.7 11.4 10.9 73 2.6 SSW 24 32 13 17 - - 0.0
 
Date/Time
EDT
Temp
°C
App
Temp
°C
Dew
Point
°C
Rel
Hum
%
Delta-T
°C
Wind Press
QNH
hPa
Press
MSL
hPa
Rain since
9am
mm
Dir  Spd
km/h
Gust
km/h
Spd
kts
Gust
kts
12/11:30pm 15.6 10.2 10.8 73 2.5 S 30 37 16 20 - - 0.0
12/11:00pm 16.0 10.2 11.4 74 2.5 SSW 33 43 18 23 - - 0.0
12/10:30pm 16.1 9.2 11.5 74 2.5 S 39 48 21 26 - - 0.0
12/10:00pm 16.2 7.6 11.6 74 2.5 S 48 56 26 30 - - 0.0
12/09:30pm 16.2 7.7 12.0 76 2.3 S 48 57 26 31 - - 0.0
12/09:00pm 16.3 7.1 12.3 77 2.2 S 52 61 28 33 - - 0.0
12/08:30pm 16.5 8.6 12.8 79 2.1 SSW 46 57 25 31 - - 0.0
12/08:00pm 16.7 9.3 13.0 79 2.1 SSW 44 56 24 30 - - 0.0
12/07:30pm 17.0 9.4 13.5 80 2.0 S 46 57 25 31 - - 0.0
12/07:00pm 17.4 8.3 13.7 79 2.1 S 54 67 29 36 - - 0.0
12/06:33pm 19.9 12.5 11.1 57 4.8 SSW 41 63 22 34 - - 0.0
12/06:30pm 19.8 13.1 9.7 52 5.4 SSW 35 50 19 27 - - 0.0
12/06:28pm 20.7 14.2 8.0 44 6.6 SW 32 50 17 27 - - 0.0
12/06:27pm 24.5 18.2 8.9 37 8.4 SW 32 50 17 27 - - 0.0
12/06:02pm 31.3 23.3 -5.3 9 16.1 WSW 28 50 15 27 - - 0.0
12/06:00pm 31.4 23.8 -5.2 9 16.1 WSW 26 43 14 23 - - 0.0
12/05:30pm 33.0 24.3 -5.6 8 17.1 W 32 50 17 27 - - 0.0
12/05:26pm 33.2 24.8 -5.5 8 17.2 W 30 50 16 27 - - 0.0
12/05:12pm 33.2 24.5 -5.5 8 17.2 NW 32 57 17 31 - - 0.0
12/05:00pm 32.6 22.4 -2.9 10 16.4 NW 41 63 22 34 - - 0.0
12/04:37pm 34.0 25.3 -4.9 8 17.6 WNW 32 57 17 31 - - 0.0
12/04:30pm 34.2 25.9 -4.7 8 17.7 W 30 54 16 29 - - 0.0
12/04:26pm 33.9 25.4 -6.7 7 17.8 WNW 30 54 16 29 - - 0.0
12/04:25pm 33.9 26.0 -4.9 8 17.5 WNW 28 54 15 29 - - 0.0
12/04:00pm 34.4 24.4 -4.6 8 17.8 NW 39 61 21 33 - - 0.0
12/03:30pm 34.6 24.6 -4.4 8 17.9 NW 39 63 21 34 - - 0.0
12/03:12pm 34.8 26.0 -4.3 8 18.0 NW 33 69 18 37 - - 0.0
12/03:10pm 35.5 27.9 -2.2 9 18.0 WNW 28 46 15 25 - - 0.0
12/03:00pm 35.5 27.5 -5.5 7 18.6 WNW 28 44 15 24 - - 0.0
12/02:30pm 34.8 26.4 -6.0 7 18.2 WNW 30 50 16 27 - - 0.0
12/02:02pm 34.9 25.7 -4.2 8 18.0 WNW 35 56 19 30 - - 0.0
12/02:00pm 34.9 25.7 -4.2 8 18.0 WNW 35 50 19 27 - - 0.0
12/01:30pm 34.6 25.8 -4.4 8 17.9 WNW 33 54 18 29 - - 0.0
12/01:25pm 34.5 25.7 -4.5 8 17.8 NW 33 54 18 29 - - 0.0
12/01:04pm 34.8 26.9 -1.3 10 17.4 W 30 48 16 26 - - 0.0
12/01:03pm 34.9 27.2 -2.6 9 17.7 W 28 48 15 26 - - 0.0
12/01:00pm 34.9 27.1 -4.2 8 18.0 W 28 44 15 24 - - 0.0
12/12:33pm 34.0 25.7 -4.9 8 17.6 W 30 50 16 27 - - 0.0
12/12:30pm 34.4 26.9 -1.6 10 17.2 WNW 28 50 15 27 - - 0.0
12/12:03pm 32.8 24.9 -1.5 11 16.3 NW 30 50 16 27 - - 0.0
12/12:00pm 32.8 26.4 0.8 13 15.8 NW 24 39 13 21 - - 0.0
12/11:34am 31.5 23.4 -0.2 13 15.2 NW 32 50 17 27 - - 0.0
12/11:30am 31.4 23.1 -1.4 12 15.4 NW 32 46 17 25 - - 0.0
12/11:15am 31.0 23.5 -1.7 12 15.3 NW 28 46 15 25 - - 0.0
12/11:00am 28.9 23.7 2.2 18 13.1 N 19 35 10 19 - - 0.0
12/10:30am 25.8 22.0 5.9 28 10.3 NNE 15 26 8 14 - - 0.0
12/10:00am 24.2 19.2 9.4 39 8.0 ENE 26 37 14 20 - - 0.0
12/09:30am 22.9 18.0 10.0 44 7.0 NE 26 33 14 18 - - 0.0
12/09:00am 21.4 15.7 9.9 48 6.2 NE 30 37 16 20 - - 0.0
12/08:30am 21.2 15.7 9.1 46 6.4 NE 28 37 15 20 - - 0.0
12/08:00am 20.8 14.9 9.1 47 6.2 NE 30 39 16 21 - - 0.0
12/07:59am 20.6 14.8 9.5 49 5.9 NE 30 39 16 21 - - 0.0
12/07:30am 20.6 17.3 9.5 49 5.9 NNE 17 20 9 11 - - 0.0
12/07:00am 18.8 16.5 10.4 58 4.5 NNW 13 26 7 14 - - 0.0
12/06:30am 17.2 15.6 10.1 63 3.8 NNW 9 13 5 7 - - 0.0
12/06:00am 16.8 14.9 9.2 61 3.9 NNW 9 11 5 6 - - 0.0
12/05:30am 16.9 14.0 9.8 63 3.7 NNW 15 20 8 11 - - 0.0
12/05:00am 16.1 14.9 10.4 69 3.0 NNW 7 9 4 5 - - 0.0
12/04:30am 16.3 14.5 11.0 71 2.8 NNW 11 17 6 9 - - 0.0
12/04:00am 16.3 15.7 12.3 77 2.2 N 7 9 4 5 - - 0.0
12/03:30am 17.5 17.0 13.8 79 2.1 NNE 9 11 5 6 - - 0.0
12/03:00am 17.0 15.4 12.7 76 2.4 NNW 13 19 7 10 - - 0.0
12/02:30am 17.0 16.1 12.5 75 2.5 NW 9 11 5 6 - - 0.0
12/02:00am 17.5 15.2 13.0 75 2.5 WNW 17 20 9 11 - - 0.0
12/01:30am 17.4 15.8 12.9 75 2.5 WNW 13 19 7 10 - - 0.0
12/01:00am 17.3 16.3 13.4 78 2.2 NW 11 15 6 8 - - 0.0
12/12:30am 17.2 17.3 13.9 81 1.9 N 6 9 3 5 - - 0.0
12/12:00am 17.4 17.4 14.1 81 1.9 NE 7 9 4 5 - - 0.0
 
Date/Time
EDT
Temp
°C
App
Temp
°C
Dew
Point
°C
Rel
Hum
%
Delta-T
°C
Wind Press
QNH
hPa
Press
MSL
hPa
Rain since
9am
mm
Dir  Spd
km/h
Gust
km/h
Spd
kts
Gust
kts
11/11:30pm 17.5 17.7 14.2 81 1.9 NNE 6 9 3 5 - - 0.0
11/11:00pm 17.3 18.5 13.8 80 2.0 CALM 0 7 0 4 - - 0.0
11/10:30pm 17.8 17.9 14.5 81 1.9 N 7 11 4 6 - - 0.0
11/10:00pm 17.8 16.8 14.7 82 1.8 NE 13 19 7 10 - - 0.0
11/09:30pm 18.0 16.8 15.1 83 1.7 NNE 15 20 8 11 - - 0.0
11/09:00pm 18.1 16.0 15.2 83 1.7 NE 20 24 11 13 - - 0.0
11/08:30pm 18.2 16.1 15.1 82 1.8 NE 20 24 11 13 - - 0.0
11/08:00pm 18.2 14.9 15.1 82 1.8 NE 26 30 14 16 - - 0.0
11/07:30pm 18.4 14.7 15.1 81 1.9 NE 28 32 15 17 - - 0.0
11/07:00pm 18.6 14.0 15.1 80 2.0 NE 33 37 18 20 - - 0.0
11/06:30pm 18.9 13.4 14.8 77 2.4 NE 37 43 20 23 - - 0.0
11/06:00pm 19.2 14.1 14.9 76 2.5 NE 35 41 19 22 - - 0.0
11/05:30pm 19.4 13.0 14.4 73 2.9 NE 41 48 22 26 - - 0.0
11/05:00pm 19.7 14.0 14.3 71 3.1 ENE 37 46 20 25 - - 0.0
11/04:30pm 20.0 14.0 14.4 70 3.3 NE 39 46 21 25 - - 0.0
11/04:00pm 20.0 13.2 14.4 70 3.3 NE 43 50 23 27 - - 0.0
11/03:30pm 20.2 13.3 14.1 68 3.5 NE 43 50 23 27 - - 0.0
11/03:00pm 20.1 14.0 14.2 69 3.4 NE 39 50 21 27 - - 0.0
11/02:30pm 20.2 14.1 14.1 68 3.5 NE 39 46 21 25 - - 0.0
11/02:00pm 20.3 13.5 14.4 69 3.4 NE 43 52 23 28 - - 0.0
11/01:30pm 20.3 13.9 14.4 69 3.4 NE 41 50 22 27 - - 0.0
11/01:00pm 20.4 14.9 14.7 70 3.3 NE 37 44 20 24 - - 0.0
11/12:30pm 20.2 15.0 14.6 70 3.3 NE 35 43 19 23 - - 0.0
11/12:00pm 20.5 15.5 15.1 71 3.2 NE 35 39 19 21 - - 0.0
11/11:30am 20.9 17.1 13.6 63 4.2 ENE 26 32 14 17 - - 0.0
11/11:00am 20.9 17.6 12.8 60 4.6 NE 22 28 12 15 - - 0.0
11/10:30am 20.6 17.8 13.3 63 4.2 NE 20 24 11 13 - - 0.0
11/10:00am 20.5 18.1 12.7 61 4.4 NE 17 20 9 11 - - 0.0
11/09:30am 20.1 18.2 11.8 59 4.6 NNE 13 17 7 9 - - 0.0
11/09:00am 19.1 16.4 11.7 62 4.1 N 17 20 9 11 - - 0.0
11/08:30am 18.2 14.5 11.5 65 3.7 NNW 22 32 12 17 - - 0.0
11/08:00am 17.4 15.5 11.7 69 3.1 N 13 22 7 12 - - 0.0
11/07:30am 16.8 15.3 11.9 73 2.7 NNW 11 17 6 9 - - 0.0
11/07:00am 15.8 13.5 11.6 76 2.3 N 15 20 8 11 - - 0.0
11/06:30am 14.6 13.3 11.2 80 1.8 NW 9 13 5 7 - - 0.0
11/06:00am 14.0 12.6 10.8 81 1.7 NNW 9 13 5 7 - - 0.0
11/05:30am 13.5 11.9 10.3 81 1.7 NW 9 11 5 6 - - 0.0
11/05:00am 13.5 11.1 10.1 80 1.8 WNW 13 17 7 9 - - 0.0
11/04:30am 13.9 12.0 10.5 80 1.8 NW 11 15 6 8 - - 0.0
11/04:00am 14.0 12.5 10.6 80 1.8 NW 9 13 5 7 - - 0.0
11/03:30am 13.9 12.3 10.3 79 1.9 NW 9 13 5 7 - - 0.0
11/03:00am 14.1 13.0 10.5 79 1.9 NW 7 9 4 5 - - 0.0
11/02:30am 14.2 12.7 10.4 78 2.0 WNW 9 13 5 7 - - 0.0
11/02:00am 14.2 12.7 10.4 78 2.0 NW 9 11 5 6 - - 0.0
11/01:30am 14.4 12.5 10.6 78 2.0 WNW 11 13 6 7 - - 0.0
11/01:00am 14.3 12.0 10.5 78 2.0 WNW 13 15 7 8 - - 0.0
11/12:30am 14.5 12.3 10.7 78 2.0 WNW 13 15 7 8 - - 0.0
11/12:00am 14.4 12.5 10.6 78 2.0 WNW 11 13 6 7 - - 0.0
 
Date/Time
EDT
Temp
°C
App
Temp
°C
Dew
Point
°C
Rel
Hum
%
Delta-T
°C
Wind Press
QNH
hPa
Press
MSL
hPa
Rain since
9am
mm
Dir  Spd
km/h
Gust
km/h
Spd
kts
Gust
kts
10/11:30pm 14.6 13.4 10.4 76 2.2 WNW 7 13 4 7 - - 0.0
10/11:00pm 14.9 13.8 10.5 75 2.3 WNW 7 9 4 5 - - 0.0
10/10:30pm 15.3 14.4 10.7 74 2.4 WNW 6 9 3 5 - - 0.0
10/10:00pm 16.1 15.2 11.3 73 2.6 S 7 9 4 5 - - 0.0
10/09:30pm 16.4 14.4 11.6 73 2.6 S 13 17 7 9 - - 0.0
10/09:00pm 16.7 14.4 11.8 73 2.7 S 15 19 8 10 - - 0.0
10/08:30pm 16.9 14.3 12.0 73 2.7 S 17 20 9 11 - - 0.0
10/08:00pm 16.9 13.8 11.6 71 2.9 SSE 19 22 10 12 - - 0.0
10/07:30pm 17.2 14.1 11.5 69 3.1 SSE 19 22 10 12 - - 0.0
10/07:00pm 17.3 14.0 10.9 66 3.4 SSE 19 22 10 12 - - 0.0
10/06:30pm 17.9 14.4 11.0 64 3.7 SSE 20 22 11 12 - - 0.0
10/06:00pm 18.2 14.8 10.6 61 4.1 SSE 19 20 10 11 - - 0.0
10/05:30pm 18.7 15.5 10.0 57 4.6 SSE 17 22 9 12 - - 0.0
10/05:00pm 19.0 15.8 10.0 56 4.8 SE 17 20 9 11 - - 0.0
10/04:30pm 19.2 15.9 9.4 53 5.2 SE 17 20 9 11 - - 0.0
10/04:00pm 19.4 15.9 8.7 50 5.6 SE 17 20 9 11 - - 0.0
10/03:30pm 20.0 16.6 9.0 49 5.8 SE 17 20 9 11 - - 0.0
10/03:00pm 20.2 16.9 9.7 51 5.6 ESE 17 20 9 11 - - 0.0
10/02:30pm 19.8 17.6 10.8 56 4.9 E 13 15 7 8 - - 0.0
10/02:00pm 19.5 16.8 10.5 56 4.9 ENE 15 17 8 9 - - 0.0
10/01:30pm 20.8 18.3 9.7 49 5.9 ENE 13 15 7 8 - - 0.0
10/01:00pm 20.7 18.8 11.9 57 4.9 ESE 13 17 7 9 - - 0.0
10/12:30pm 18.7 14.8 8.7 52 5.2 ESE 19 20 10 11 - - 0.0
10/12:00pm 20.8 17.1 10.0 50 5.8 SE 20 26 11 14 - - 0.0
10/11:30am 20.1 15.7 7.5 44 6.5 SSE 20 26 11 14 - - 0.0
10/11:00am 20.2 15.6 6.5 41 6.9 S 20 26 11 14 - - 0.0
10/10:30am 21.4 16.7 5.3 35 8.0 SSW 19 26 10 14 - - 0.0
10/10:00am 20.3 14.6 3.1 32 8.1 SSW 22 33 12 18 - - 0.0
10/09:30am 19.5 15.6 3.2 34 7.6 WSW 13 20 7 11 - - 0.0
10/09:00am 18.7 13.3 2.5 34 7.4 W 20 30 11 16 - - 0.0
10/08:30am 18.0 13.3 3.1 37 6.9 W 17 24 9 13 - - 0.0
10/08:00am 17.1 12.4 3.1 39 6.4 W 17 28 9 15 - - 0.0
10/07:30am 16.1 11.3 2.5 40 6.1 W 17 28 9 15 - - 0.0
10/07:00am 15.3 9.9 2.5 42 5.7 W 20 33 11 18 - - 0.0
10/06:30am 14.9 8.7 2.4 43 5.6 W 24 43 13 23 - - 0.0
10/06:00am 14.8 8.2 2.0 42 5.6 W 26 44 14 24 - - 0.0
10/05:30am 14.9 7.9 1.8 41 5.7 W 28 43 15 23 - - 0.0
10/05:17am 15.0 7.5 1.5 40 5.9 W 30 50 16 27 - - 0.0

Latest Capital City Observations: Canberra | Sydney | Melbourne | Brisbane | Adelaide | Perth | Hobart | Darwin

Other formats

Comma delimited format used in spreadsheet applications
http://www.bom.gov.au/fwo/IDN60901/IDN60901.94749.axf

JavaScript Object Notation format (JSON) in row-major order
http://www.bom.gov.au/fwo/IDN60901/IDN60901.94749.json

Data quality

Most of these data are generated automatically and are frequently updated. Quality checks on data are not normally performed. It is possible for incorrect values to appear. Refer to information at About Latest Weather Observations and please check the disclaimer before using these data.